Time;durP1;ratioP1;P1;durP2;ratioP2;P2;SDS_P1;SDS_P2;PMS_P1;PMS_P2;Temp;Humidity;BMP_temperature;BMP_pressure;BME280_temperature;BME280_humidity;BME280_pressure;Samples;Min_cycle;Max_cycle;Signal;HPM_P1;HPM_P2
2021/09/28 01:08:46;;;;;;;1.20;1.17;;;13.40;99.90;;;;;;6093599;23;20447;-87
2021/09/28 01:15:02;;;;;;;1.63;1.53;;;13.10;99.90;;;;;;5955621;24;20389;-86
2021/09/28 01:21:13;;;;;;;2.20;1.50;;;12.90;99.90;;;;;;5954543;24;20540;-86
2021/09/28 06:01:16;;;;;;;4.70;4.30;;;12.10;99.90;;;;;;6091322;23;20475;-84
2021/09/28 06:03:43;;;;;;;4.43;3.87;;;12.10;99.90;;;;;;6116269;23;20450;-86
2021/09/28 06:13:21;;;;;;;5.43;4.20;;;12.40;99.90;;;;;;5931898;24;20772;-87
2021/09/28 06:22:36;;;;;;;4.47;4.17;;;12.50;99.90;;;;;;5986534;24;20488;-85
2021/09/28 06:25:09;;;;;;;5.27;4.77;;;12.60;99.90;;;;;;5988940;24;20514;-85
2021/09/28 06:30:48;;;;;;;4.90;3.37;;;12.80;99.90;;;;;;6099899;23;20439;-86
2021/09/28 06:33:28;;;;;;;6.33;4.03;;;12.90;99.90;;;;;;6109649;23;20416;-85
2021/09/28 06:36:06;;;;;;;5.30;4.07;;;13.00;99.90;;;;;;6107879;23;20447;-85
2021/09/28 06:41:54;;;;;;;4.73;4.33;;;13.00;99.90;;;;;;6109722;23;20448;-82
2021/09/28 06:44:21;;;;;;;4.23;3.27;;;13.10;99.90;;;;;;6108048;23;21010;-82
2021/09/28 06:46:48;;;;;;;4.70;4.30;;;13.10;99.90;;;;;;6111622;23;20473;-83
2021/09/28 06:49:15;;;;;;;6.03;4.10;;;13.20;99.90;;;;;;6109522;23;20408;-83
2021/09/28 06:51:43;;;;;;;5.27;3.87;;;13.20;99.90;;;;;;6109632;23;20448;-82
2021/09/28 06:54:10;;;;;;;4.30;3.90;;;13.30;99.90;;;;;;6109135;23;20423;-82
2021/09/28 06:56:37;;;;;;;3.90;3.60;;;13.30;99.90;;;;;;6107126;23;20421;-82
2021/09/28 06:59:07;;;;;;;7.80;4.73;;;13.20;99.90;;;;;;6107884;23;20444;-85
2021/09/28 07:01:34;;;;;;;9.40;4.67;;;13.30;99.90;;;;;;6122714;23;20483;-83
2021/09/28 07:04:01;;;;;;;5.33;4.83;;;13.20;99.90;;;;;;6135821;23;20453;-83
2021/09/28 07:06:28;;;;;;;6.60;4.80;;;13.30;99.90;;;;;;6135924;23;20431;-84
2021/09/28 07:08:56;;;;;;;7.60;5.00;;;13.30;99.90;;;;;;6135187;23;20462;-85
2021/09/28 07:11:23;;;;;;;5.27;4.80;;;13.40;99.90;;;;;;6135396;23;20507;-83
2021/09/28 07:13:50;;;;;;;4.70;4.00;;;13.40;99.90;;;;;;6149304;23;20396;-81
2021/09/28 07:16:17;;;;;;;4.97;4.50;;;13.50;99.90;;;;;;6148752;23;20437;-83
2021/09/28 07:18:45;;;;;;;7.23;6.53;;;13.50;99.90;;;;;;6148019;23;20583;-81
2021/09/28 07:21:12;;;;;;;7.43;5.30;;;13.50;99.90;;;;;;6136911;23;20404;-83
2021/09/28 07:23:39;;;;;;;8.53;5.20;;;13.70;99.90;;;;;;6134974;23;20416;-83
2021/09/28 07:26:09;;;;;;;6.53;4.40;;;13.70;99.90;;;;;;6133359;23;20432;-82
2021/09/28 07:28:37;;;;;;;5.40;4.80;;;13.60;99.90;;;;;;6133961;23;20427;-82
2021/09/28 07:31:07;;;;;;;6.43;5.83;;;13.60;99.90;;;;;;6133481;23;20447;-85
2021/09/28 07:33:34;;;;;;;7.30;5.70;;;13.50;99.90;;;;;;6130210;23;20414;-85
2021/09/28 07:36:04;;;;;;;7.47;4.50;;;13.30;99.90;;;;;;6128261;23;20431;-85
2021/09/28 07:38:30;;;;;;;6.60;4.43;;;13.40;99.90;;;;;;6128761;23;20408;-85
2021/09/28 07:40:57;;;;;;;5.23;4.73;;;13.40;99.90;;;;;;6129523;23;20411;-85
2021/09/28 07:43:26;;;;;;;6.10;4.20;;;13.50;99.90;;;;;;6128369;23;20895;-86
2021/09/28 07:45:53;;;;;;;6.10;4.43;;;13.50;99.90;;;;;;6130245;23;20426;-85
2021/09/28 07:48:19;;;;;;;5.67;5.10;;;13.50;99.90;;;;;;6133156;23;20412;-85
2021/09/28 07:50:47;;;;;;;4.30;4.00;;;13.40;99.90;;;;;;6131055;23;20886;-86
2021/09/28 07:53:13;;;;;;;5.43;4.90;;;13.40;99.90;;;;;;6131977;23;20407;-85
2021/09/28 07:55:40;;;;;;;5.37;4.87;;;13.30;99.90;;;;;;6131168;23;20724;-85
2021/09/28 07:58:07;;;;;;;11.67;4.67;;;13.50;99.90;;;;;;6131024;23;20414;-85
2021/09/28 08:00:38;;;;;;;5.47;5.00;;;13.50;99.90;;;;;;6130730;23;20487;-85
2021/09/28 08:03:05;;;;;;;4.63;4.13;;;13.40;99.90;;;;;;6131645;23;20495;-85
2021/09/28 08:05:32;;;;;;;4.90;4.10;;;13.60;99.90;;;;;;6131054;23;20432;-85
2021/09/28 08:07:58;;;;;;;4.47;4.07;;;13.60;99.90;;;;;;6132227;23;20415;-84
2021/09/28 08:10:25;;;;;;;6.23;3.87;;;13.60;99.90;;;;;;6131766;23;20451;-85
2021/09/28 08:12:52;;;;;;;5.23;4.30;;;13.70;99.90;;;;;;6131108;23;20426;-84
2021/09/28 08:15:19;;;;;;;9.57;5.30;;;13.80;99.90;;;;;;6132688;23;20460;-85
2021/09/28 08:17:47;;;;;;;5.00;4.60;;;13.80;99.90;;;;;;6131612;23;20422;-84
2021/09/28 08:20:16;;;;;;;5.70;4.30;;;13.90;99.90;;;;;;6132642;23;20727;-88
2021/09/28 08:22:44;;;;;;;7.00;6.37;;;14.00;99.90;;;;;;6132588;23;20419;-86
2021/09/28 08:25:15;;;;;;;5.10;4.50;;;14.00;99.90;;;;;;6107037;23;20822;-83
2021/09/28 08:30:27;;;;;;;5.90;5.00;;;13.90;99.90;;;;;;6131346;23;20431;-83
2021/09/28 08:32:55;;;;;;;9.10;5.93;;;13.90;99.90;;;;;;6131714;23;20411;-84
2021/09/28 08:35:22;;;;;;;5.70;5.20;;;13.90;99.90;;;;;;6131746;23;20441;-83
2021/09/28 08:37:49;;;;;;;6.90;5.83;;;13.80;99.90;;;;;;6131432;23;20799;-84
2021/09/28 08:40:19;;;;;;;7.93;7.07;;;13.80;99.90;;;;;;6131770;23;20418;-84
2021/09/28 08:42:46;;;;;;;7.60;6.03;;;13.90;99.90;;;;;;6131475;23;20423;-84
2021/09/28 08:45:12;;;;;;;6.23;5.63;;;14.00;99.90;;;;;;6130667;23;20412;-84
2021/09/28 08:47:42;;;;;;;5.80;5.20;;;14.20;99.90;;;;;;6134862;23;20847;-86
2021/09/28 08:50:14;;;;;;;6.17;5.57;;;14.30;99.90;;;;;;6135439;23;20426;-86
2021/09/28 08:52:42;;;;;;;6.00;5.17;;;14.30;99.90;;;;;;6134781;23;20396;-84
2021/09/28 08:55:10;;;;;;;5.87;4.97;;;14.60;99.90;;;;;;6134208;23;20485;-85
2021/09/28 08:57:38;;;;;;;5.70;4.20;;;14.70;99.90;;;;;;6133409;23;20423;-85
2021/09/28 09:00:21;;;;;;;6.13;4.57;;;15.00;99.90;;;;;;6134880;23;20417;-84
2021/09/28 09:02:49;;;;;;;7.07;5.50;;;15.10;99.90;;;;;;6135871;23;20392;-86
2021/09/28 09:05:18;;;;;;;5.70;5.20;;;15.20;99.90;;;;;;6134688;23;20420;-83
2021/09/28 09:07:56;;;;;;;7.20;5.00;;;15.10;99.90;;;;;;6133547;23;20409;-83
2021/09/28 09:10:27;;;;;;;7.97;5.90;;;15.30;99.90;;;;;;6131535;23;20404;-84
2021/09/28 09:12:54;;;;;;;6.10;5.60;;;15.10;99.90;;;;;;6134150;23;20448;-84
2021/09/28 09:15:23;;;;;;;4.03;3.73;;;15.10;99.90;;;;;;6135153;23;20434;-82
2021/09/28 09:17:51;;;;;;;4.60;3.00;;;15.00;99.90;;;;;;6135468;23;20422;-85
2021/09/28 09:20:39;;;;;;;5.83;5.27;;;15.00;99.90;;;;;;6132518;23;20868;-84
2021/09/28 09:23:25;;;;;;;4.43;4.13;;;15.20;99.90;;;;;;6135829;23;20860;-84
2021/09/28 09:26:18;;;;;;;7.40;4.87;;;15.00;99.90;;;;;;6135788;23;20460;-83
2021/09/28 09:29:01;;;;;;;5.93;5.53;;;14.90;99.90;;;;;;6098178;23;20413;-86
2021/09/28 09:31:33;;;;;;;5.73;5.33;;;15.00;99.90;;;;;;6138265;23;20440;-85
2021/09/28 09:34:09;;;;;;;6.70;4.93;;;14.90;99.90;;;;;;6135869;23;20401;-86
2021/09/28 09:36:38;;;;;;;7.23;6.00;;;14.80;99.90;;;;;;6135289;23;20440;-86
2021/09/28 09:39:09;;;;;;;9.07;8.37;;;14.80;99.90;;;;;;6136350;23;20447;-86
2021/09/28 09:41:38;;;;;;;10.43;5.77;;;14.70;99.90;;;;;;6136586;23;20396;-85
2021/09/28 09:44:07;;;;;;;7.63;6.70;;;14.80;99.90;;;;;;6137905;23;20419;-84
2021/09/28 09:46:43;;;;;;;7.60;6.93;;;14.90;99.90;;;;;;6137263;23;20438;-86
2021/09/28 10:10:20;;;;;;;6.03;5.70;;;15.50;99.90;;;;;;6137574;23;20502;-85
2021/09/28 10:12:48;;;;;;;8.57;6.23;;;15.40;99.90;;;;;;6136725;23;20447;-85
2021/09/28 10:15:17;;;;;;;6.20;5.70;;;15.50;99.90;;;;;;6137676;23;20498;-84
2021/09/28 10:17:45;;;;;;;4.83;4.43;;;15.40;99.90;;;;;;6138409;23;20490;-85
2021/09/28 10:20:28;;;;;;;4.77;4.30;;;15.50;99.90;;;;;;6138914;23;20447;-83
2021/09/28 10:22:55;;;;;;;4.37;4.07;;;15.60;99.90;;;;;;6138192;23;20480;-85
2021/09/28 10:25:41;;;;;;;4.80;4.40;;;16.00;99.90;;;;;;6137220;23;20487;-85
2021/09/28 10:28:31;;;;;;;8.20;4.40;;;16.30;99.90;;;;;;6137388;23;20759;-85
2021/09/28 10:30:58;;;;;;;3.33;3.17;;;16.60;99.90;;;;;;6137613;23;20465;-85
2021/09/28 10:33:31;;;;;;;5.33;3.73;;;16.90;99.90;;;;;;6137939;23;20422;-85
2021/09/28 10:36:00;;;;;;;4.53;3.60;;;17.40;99.90;;;;;;6136555;23;20993;-85
2021/09/28 10:38:54;;;;;;;5.20;3.67;;;17.70;97.90;;;;;;6137321;23;20414;-83
2021/09/28 10:41:52;;;;;;;3.40;3.10;;;18.10;98.90;;;;;;6137044;23;20874;-86
2021/09/28 10:44:44;;;;;;;4.10;3.77;;;18.60;97.40;;;;;;6136932;23;20490;-84
2021/09/28 10:47:44;;;;;;;4.33;3.50;;;18.70;96.50;;;;;;6137317;23;20430;-83
2021/09/28 10:50:36;;;;;;;6.53;5.80;;;18.40;95.90;;;;;;6139646;23;20734;-86
2021/09/28 10:53:05;;;;;;;4.77;4.30;;;18.10;96.10;;;;;;6139560;23;20513;-83
2021/09/28 10:55:39;;;;;;;4.00;3.70;;;18.10;97.10;;;;;;6139053;23;20456;-85
2021/09/28 10:58:22;;;;;;;4.00;3.63;;;18.30;97.30;;;;;;6143304;23;20497;-84
2021/09/28 11:01:06;;;;;;;4.40;4.00;;;18.40;97.50;;;;;;6139188;23;20402;-85
2021/09/28 11:03:59;;;;;;;4.23;3.83;;;18.60;95.60;;;;;;6137941;23;20442;-83
2021/09/28 11:06:51;;;;;;;4.90;3.43;;;19.00;95.60;;;;;;6133785;23;20686;-84
2021/09/28 11:09:20;;;;;;;3.30;3.00;;;19.80;96.60;;;;;;6133692;23;20419;-83
2021/09/28 11:11:51;;;;;;;4.40;4.00;;;20.80;95.80;;;;;;6132974;23;20447;-84
2021/09/28 11:14:20;;;;;;;2.70;2.50;;;21.70;93.20;;;;;;6133776;23;20423;-83
2021/09/28 11:16:53;;;;;;;3.37;3.07;;;22.50;91.90;;;;;;6134198;23;20428;-84
2021/09/28 11:19:20;;;;;;;3.03;1.60;;;23.10;85.70;;;;;;6133119;23;20401;-84
2021/09/28 11:21:48;;;;;;;2.70;2.30;;;23.20;80.10;;;;;;6133866;23;20410;-84
2021/09/28 11:24:21;;;;;;;4.03;3.13;;;23.00;77.60;;;;;;6134287;23;20451;-84
2021/09/28 11:54:09;;;;;;;3.30;3.00;;;23.40;84.10;;;;;;5700777;24;20949;-83
2021/09/28 11:56:38;;;;;;;2.57;2.47;;;24.30;80.10;;;;;;5942594;23;20438;-84
2021/09/28 11:59:10;;;;;;;7.30;2.67;;;25.10;77.60;;;;;;6120715;23;20502;-85
2021/09/28 12:01:37;;;;;;;3.57;2.40;;;25.70;75.90;;;;;;6133281;23;20400;-85
2021/09/28 12:04:09;;;;;;;2.63;2.33;;;26.20;72.10;;;;;;6133648;23;20718;-84
2021/09/28 12:06:48;;;;;;;3.03;2.83;;;26.60;67.90;;;;;;6133813;23;20436;-84
2021/09/28 12:09:16;;;;;;;3.50;2.60;;;26.30;69.40;;;;;;6133828;23;20491;-84
2021/09/28 12:11:59;;;;;;;4.70;3.30;;;26.80;69.50;;;;;;6133110;23;20458;-85
2021/09/28 12:14:37;;;;;;;3.07;2.77;;;27.00;64.50;;;;;;6132426;23;20406;-84
2021/09/28 12:17:12;;;;;;;3.13;2.83;;;26.30;65.70;;;;;;6132731;23;20815;-84
2021/09/28 12:19:42;;;;;;;3.37;3.07;;;25.40;65.40;;;;;;6132823;23;20411;-85
2021/09/28 12:22:09;;;;;;;4.00;2.83;;;24.80;68.90;;;;;;6145694;23;20407;-83
2021/09/28 12:24:45;;;;;;;3.53;2.90;;;24.40;69.00;;;;;;6145341;23;20408;-83
2021/09/28 12:27:12;;;;;;;3.13;2.93;;;24.50;71.90;;;;;;6143045;23;20492;-84
2021/09/28 12:29:41;;;;;;;3.50;3.17;;;25.00;71.70;;;;;;6133179;23;20838;-85
2021/09/28 12:32:08;;;;;;;3.90;3.50;;;25.20;70.00;;;;;;6132921;23;20448;-84
2021/09/28 12:34:53;;;;;;;3.70;3.40;;;24.60;67.20;;;;;;6132447;23;20416;-84
2021/09/28 12:37:21;;;;;;;3.40;3.03;;;24.40;70.80;;;;;;6133145;23;20452;-85
2021/09/28 12:40:08;;;;;;;4.93;2.90;;;24.90;69.00;;;;;;6132745;23;20471;-83
2021/09/28 12:42:37;;;;;;;4.00;3.70;;;25.70;70.90;;;;;;6132755;23;20401;-82
2021/09/28 12:45:06;;;;;;;5.17;3.33;;;25.70;65.90;;;;;;6132916;23;20440;-85
2021/09/28 12:47:37;;;;;;;3.73;3.00;;;25.60;65.50;;;;;;6132939;23;20404;-84
2021/09/28 12:50:23;;;;;;;3.90;3.60;;;25.90;66.20;;;;;;6132608;23;20456;-84
2021/09/28 12:52:51;;;;;;;4.40;3.40;;;24.60;65.30;;;;;;6132492;23;20433;-85
2021/09/28 12:55:20;;;;;;;4.33;3.70;;;24.80;69.20;;;;;;6133589;23;20454;-85
2021/09/28 12:57:47;;;;;;;3.10;2.90;;;24.90;69.30;;;;;;6133156;23;20746;-85
2021/09/28 13:00:14;;;;;;;3.20;3.00;;;24.90;65.60;;;;;;6132789;23;20421;-84
2021/09/28 13:02:41;;;;;;;3.23;3.00;;;24.10;67.90;;;;;;6133257;23;20502;-84
2021/09/28 13:05:11;;;;;;;3.33;2.70;;;23.90;67.90;;;;;;6132124;23;20419;-84
2021/09/28 13:07:39;;;;;;;4.13;2.90;;;23.90;69.30;;;;;;6132753;23;20482;-84
2021/09/28 13:10:06;;;;;;;6.63;3.70;;;23.70;68.70;;;;;;6132548;23;20424;-84
2021/09/28 13:12:35;;;;;;;2.97;2.77;;;23.60;69.30;;;;;;6132006;23;20448;-85
2021/09/28 13:15:01;;;;;;;3.00;2.80;;;23.00;70.80;;;;;;6132805;23;20419;-84
2021/09/28 13:17:28;;;;;;;3.17;2.87;;;23.00;72.00;;;;;;6132819;23;20497;-85
2021/09/28 13:19:55;;;;;;;3.40;3.10;;;23.40;73.40;;;;;;6132835;23;20414;-84
2021/09/28 13:22:22;;;;;;;3.10;2.90;;;23.10;71.40;;;;;;6132960;23;20828;-85
2021/09/28 13:24:49;;;;;;;3.30;3.10;;;23.60;74.30;;;;;;6132557;23;20768;-85
2021/09/28 13:27:15;;;;;;;3.63;3.33;;;24.00;73.90;;;;;;6132183;23;20439;-84
2021/09/28 13:29:44;;;;;;;4.37;3.47;;;24.10;71.20;;;;;;6133047;23;20408;-85
2021/09/28 13:32:11;;;;;;;4.07;2.90;;;24.40;71.00;;;;;;6132433;23;20630;-84
2021/09/28 13:34:38;;;;;;;3.60;3.40;;;24.60;69.60;;;;;;6132782;23;20479;-85
2021/09/28 13:37:05;;;;;;;3.47;3.17;;;24.90;69.20;;;;;;6132412;23;20432;-84
2021/09/28 13:39:38;;;;;;;4.23;3.93;;;25.10;67.80;;;;;;6134330;23;20491;-84
2021/09/28 13:42:06;;;;;;;5.43;4.43;;;25.20;66.40;;;;;;6130824;23;20412;-84
2021/09/28 13:44:36;;;;;;;6.10;3.50;;;25.20;68.50;;;;;;6131165;23;20424;-84
2021/09/28 13:47:12;;;;;;;4.80;4.37;;;24.30;67.50;;;;;;6130466;23;20989;-83
2021/09/28 13:49:39;;;;;;;4.80;4.40;;;24.00;68.60;;;;;;6131742;23;20962;-84
2021/09/28 13:52:07;;;;;;;5.50;4.93;;;23.90;71.00;;;;;;6131329;23;20465;-85
2021/09/28 13:54:34;;;;;;;4.60;3.63;;;24.00;71.60;;;;;;6131217;23;20408;-83
2021/09/28 13:57:01;;;;;;;3.97;3.40;;;24.10;71.10;;;;;;6131323;23;20750;-84
2021/09/28 13:59:28;;;;;;;4.87;4.57;;;24.10;71.40;;;;;;6132806;23;20495;-83
2021/09/28 14:01:55;;;;;;;5.03;4.60;;;23.50;69.10;;;;;;6140671;23;20808;-84
2021/09/28 14:04:23;;;;;;;4.43;4.03;;;23.50;70.70;;;;;;6137185;23;20412;-83
2021/09/28 14:06:50;;;;;;;3.80;3.50;;;23.40;72.00;;;;;;6133906;23;20435;-83
2021/09/28 14:09:17;;;;;;;4.27;3.80;;;23.40;72.10;;;;;;6133081;23;20495;-84
2021/09/28 14:11:44;;;;;;;4.00;3.60;;;23.40;73.20;;;;;;6132959;23;20422;-83
2021/09/28 14:14:10;;;;;;;3.73;3.43;;;23.40;73.00;;;;;;6133642;23;20412;-83
2021/09/28 14:16:37;;;;;;;4.40;4.00;;;23.30;73.60;;;;;;6133267;23;20435;-85
2021/09/28 14:19:04;;;;;;;4.40;3.97;;;23.10;72.80;;;;;;6134050;23;20428;-83
2021/09/28 14:21:32;;;;;;;4.17;3.87;;;22.70;75.10;;;;;;6133804;23;20414;-85
2021/09/28 14:23:59;;;;;;;4.10;3.80;;;22.40;73.20;;;;;;6136853;23;20436;-84
2021/09/28 14:26:26;;;;;;;5.77;4.23;;;22.40;74.10;;;;;;6137119;23;20437;-86
2021/09/28 14:28:53;;;;;;;4.37;3.93;;;22.10;75.20;;;;;;6137639;23;20408;-84
2021/09/28 14:31:21;;;;;;;3.90;3.63;;;22.10;76.90;;;;;;6137238;23;20422;-84
2021/09/28 14:33:47;;;;;;;4.63;4.23;;;22.10;76.90;;;;;;6138963;23;20457;-85
2021/09/28 14:36:14;;;;;;;4.37;3.50;;;21.40;76.60;;;;;;6138936;23;20517;-85
2021/09/28 14:38:44;;;;;;;4.50;4.20;;;21.40;79.00;;;;;;6141266;23;20427;-83
2021/09/28 14:41:11;;;;;;;4.63;4.23;;;21.60;78.50;;;;;;6141485;23;20465;-83
2021/09/28 14:43:39;;;;;;;4.20;3.90;;;21.70;77.70;;;;;;6141924;23;20413;-83
2021/09/28 14:46:06;;;;;;;4.27;3.80;;;21.80;77.50;;;;;;6141807;23;20433;-84
2021/09/28 14:48:33;;;;;;;3.90;3.60;;;21.90;77.20;;;;;;6142666;23;20413;-84
2021/09/28 14:51:00;;;;;;;5.00;4.60;;;21.80;78.50;;;;;;6142373;23;20405;-83
2021/09/28 14:53:27;;;;;;;5.10;4.70;;;21.80;77.50;;;;;;6143647;23;20535;-83
2021/09/28 14:55:55;;;;;;;5.10;4.70;;;21.80;77.60;;;;;;6145489;23;21048;-84
2021/09/28 14:58:22;;;;;;;4.03;3.63;;;21.80;78.00;;;;;;6146570;23;20409;-83
2021/09/28 15:00:51;;;;;;;4.87;4.00;;;21.50;77.60;;;;;;6143864;23;20810;-83
2021/09/28 15:03:18;;;;;;;4.57;4.03;;;21.60;79.80;;;;;;6142330;23;20438;-83
2021/09/28 15:05:45;;;;;;;4.50;4.10;;;21.60;79.10;;;;;;6142451;23;20429;-83
2021/09/28 15:08:12;;;;;;;5.63;4.10;;;21.50;77.30;;;;;;6142082;23;20480;-84
2021/09/28 15:10:38;;;;;;;5.43;3.93;;;21.50;78.60;;;;;;6142381;23;20404;-84
2021/09/28 15:13:06;;;;;;;4.67;4.30;;;21.50;78.70;;;;;;6142485;23;20449;-83
2021/09/28 15:15:34;;;;;;;4.47;4.17;;;21.40;77.50;;;;;;6142344;23;20435;-84
2021/09/28 15:18:00;;;;;;;5.93;5.37;;;21.40;79.10;;;;;;6141615;23;20424;-84
2021/09/28 15:20:27;;;;;;;4.83;3.90;;;21.20;80.10;;;;;;6138377;23;20496;-85
2021/09/28 15:22:54;;;;;;;3.80;3.50;;;21.00;79.60;;;;;;6133575;23;20412;-84
2021/09/28 15:25:21;;;;;;;4.53;4.13;;;20.70;79.50;;;;;;6133016;23;20438;-85
2021/09/28 15:27:47;;;;;;;5.10;4.70;;;20.90;81.50;;;;;;6132553;23;20511;-83
2021/09/28 15:30:16;;;;;;;3.77;3.20;;;20.90;80.50;;;;;;6133886;23;20728;-84
2021/09/28 15:32:42;;;;;;;3.87;3.43;;;20.80;81.30;;;;;;6133685;23;20773;-83
2021/09/28 15:35:11;;;;;;;4.30;4.00;;;20.10;81.30;;;;;;6132842;23;20486;-83
2021/09/28 15:37:39;;;;;;;4.40;4.00;;;19.90;83.40;;;;;;6133805;23;20422;-84
2021/09/28 15:40:07;;;;;;;3.93;3.63;;;19.80;83.70;;;;;;6134342;23;20967;-82
2021/09/28 15:42:34;;;;;;;6.03;3.70;;;20.00;85.30;;;;;;6134119;23;20813;-86
2021/09/28 15:45:01;;;;;;;6.53;4.50;;;19.90;84.10;;;;;;6133759;23;20418;-84
2021/09/28 15:47:29;;;;;;;4.10;3.80;;;19.60;84.50;;;;;;6133307;23;20422;-83
2021/09/28 15:49:56;;;;;;;3.73;3.40;;;19.50;85.50;;;;;;6131256;23;20523;-84
2021/09/28 15:52:23;;;;;;;4.17;3.83;;;19.60;86.10;;;;;;6131422;23;20442;-84
2021/09/28 15:54:52;;;;;;;5.07;4.67;;;19.70;86.50;;;;;;6131767;23;20503;-82
2021/09/28 15:57:19;;;;;;;5.63;3.80;;;19.70;86.40;;;;;;6132415;23;20437;-84
2021/09/28 15:59:46;;;;;;;4.83;3.70;;;19.80;87.50;;;;;;6131948;23;20450;-85
2021/09/28 16:02:12;;;;;;;4.00;3.70;;;19.70;86.50;;;;;;6131654;23;20498;-83
2021/09/28 16:04:40;;;;;;;3.37;3.17;;;19.80;87.70;;;;;;6131977;23;20403;-84
2021/09/28 16:07:07;;;;;;;3.67;3.37;;;19.70;87.70;;;;;;6133821;23;20435;-83
2021/09/28 16:09:34;;;;;;;6.03;4.60;;;19.70;87.20;;;;;;6133728;23;20501;-83
2021/09/28 16:12:01;;;;;;;6.10;4.10;;;19.60;86.90;;;;;;6135679;23;20403;-83
2021/09/28 16:14:28;;;;;;;4.63;4.23;;;19.30;87.40;;;;;;6133295;23;20453;-86
2021/09/28 16:16:54;;;;;;;3.70;3.40;;;19.20;88.30;;;;;;6132842;23;20434;-86
2021/09/28 16:19:21;;;;;;;5.07;4.63;;;18.80;88.00;;;;;;6131537;23;20962;-84
2021/09/28 16:21:49;;;;;;;4.97;3.23;;;18.70;90.00;;;;;;6131903;23;20816;-84
2021/09/28 16:24:16;;;;;;;4.43;4.13;;;18.70;90.20;;;;;;6130909;23;20410;-84
2021/09/28 16:26:43;;;;;;;3.80;3.50;;;18.70;90.00;;;;;;6130908;23;20444;-85
2021/09/28 16:29:10;;;;;;;3.57;3.33;;;18.80;90.30;;;;;;6131584;23;20411;-85
2021/09/28 16:31:37;;;;;;;4.70;3.83;;;18.80;90.70;;;;;;6132989;23;20425;-87
2021/09/28 16:34:04;;;;;;;3.20;2.97;;;18.80;90.60;;;;;;6138718;23;20450;-86
2021/09/28 16:36:31;;;;;;;5.07;3.40;;;18.90;90.60;;;;;;6136983;23;20481;-87
2021/09/28 16:39:00;;;;;;;4.03;3.63;;;18.80;90.50;;;;;;6138059;23;20482;-86
2021/09/28 16:41:27;;;;;;;6.97;4.80;;;18.80;90.50;;;;;;6138422;23;20416;-86
2021/09/28 16:43:54;;;;;;;4.83;4.30;;;18.50;90.40;;;;;;6137585;23;20453;-85
2021/09/28 16:46:22;;;;;;;4.53;4.13;;;18.50;90.80;;;;;;6135152;23;20435;-83
2021/09/28 16:48:51;;;;;;;4.07;3.77;;;18.50;91.00;;;;;;6134231;23;20446;-83
2021/09/28 16:51:19;;;;;;;3.70;3.40;;;18.50;91.00;;;;;;6134308;23;20414;-85
2021/09/28 16:53:47;;;;;;;3.97;3.73;;;18.30;90.60;;;;;;6131770;23;20454;-86
2021/09/28 16:56:15;;;;;;;6.30;3.80;;;18.20;91.10;;;;;;6131239;23;20431;-86
2021/09/28 16:58:44;;;;;;;8.23;4.57;;;18.10;91.60;;;;;;6132507;23;20420;-87
2021/09/28 17:01:11;;;;;;;4.23;3.93;;;18.10;92.20;;;;;;6132399;23;20416;-86
2021/09/28 17:03:39;;;;;;;3.80;3.50;;;17.90;92.20;;;;;;6132341;23;20461;-86
2021/09/28 17:06:06;;;;;;;4.00;3.70;;;17.80;92.40;;;;;;6141486;23;20431;-82
2021/09/28 17:08:35;;;;;;;4.30;4.00;;;17.70;92.40;;;;;;6146206;23;20473;-82
2021/09/28 17:11:01;;;;;;;7.27;4.50;;;17.50;92.50;;;;;;6145838;23;20445;-86
2021/09/28 17:13:30;;;;;;;4.00;3.60;;;17.40;93.00;;;;;;6135460;23;20537;-85
2021/09/28 17:15:57;;;;;;;5.20;3.50;;;17.30;93.60;;;;;;6132812;23;20433;-86
2021/09/28 17:18:23;;;;;;;4.20;3.37;;;17.20;93.90;;;;;;6133252;23;20397;-85
2021/09/28 17:20:50;;;;;;;3.67;3.40;;;17.00;94.00;;;;;;6133992;23;20417;-87
2021/09/28 17:23:17;;;;;;;4.20;3.90;;;17.00;94.30;;;;;;6133743;23;20408;-84
2021/09/28 17:25:44;;;;;;;4.43;4.03;;;16.90;94.60;;;;;;6131063;23;20437;-85
2021/09/28 17:28:11;;;;;;;4.10;3.80;;;16.80;94.80;;;;;;6130676;23;20418;-83
2021/09/28 17:30:39;;;;;;;4.87;3.73;;;16.70;94.90;;;;;;6130839;23;20415;-86
2021/09/28 17:33:06;;;;;;;4.87;4.40;;;16.60;95.30;;;;;;6133189;23;20449;-86
2021/09/28 17:35:35;;;;;;;5.23;4.17;;;16.50;95.70;;;;;;6133807;23;20439;-85
2021/09/28 17:38:03;;;;;;;5.93;4.17;;;16.40;96.20;;;;;;6136085;23;20418;-86
2021/09/28 17:40:31;;;;;;;3.80;3.50;;;16.30;96.40;;;;;;6137037;23;20412;-85
2021/09/28 17:42:59;;;;;;;8.50;4.17;;;16.10;96.90;;;;;;6136879;23;20440;-86
2021/09/28 17:45:28;;;;;;;6.37;4.50;;;16.10;97.20;;;;;;6137037;23;20431;-85
2021/09/28 17:47:57;;;;;;;5.40;4.90;;;16.10;97.40;;;;;;6138638;23;20423;-85
2021/09/28 17:50:24;;;;;;;7.70;5.80;;;15.90;97.70;;;;;;6140291;23;20415;-84
2021/09/28 17:52:53;;;;;;;5.53;4.80;;;15.70;98.10;;;;;;6139608;23;20488;-85
2021/09/28 17:55:36;;;;;;;5.57;5.07;;;15.70;98.40;;;;;;6138933;23;20428;-84
2021/09/28 17:58:04;;;;;;;7.07;5.40;;;15.70;98.50;;;;;;6138860;23;20401;-86
2021/09/28 18:00:30;;;;;;;8.97;8.17;;;15.60;98.70;;;;;;6141742;23;20460;-85
2021/09/28 18:02:59;;;;;;;6.90;6.30;;;15.60;99.10;;;;;;6140744;23;20492;-85
2021/09/28 18:05:26;;;;;;;9.37;8.47;;;15.60;99.20;;;;;;6138307;23;20465;-86
2021/09/28 18:07:52;;;;;;;9.40;7.30;;;15.50;99.40;;;;;;6139461;23;20415;-85
2021/09/28 18:10:19;;;;;;;6.07;5.70;;;15.50;99.70;;;;;;6139654;23;20482;-85
2021/09/28 18:12:46;;;;;;;7.20;6.60;;;15.50;99.90;;;;;;6140158;23;20420;-84
2021/09/28 18:15:14;;;;;;;6.77;5.93;;;15.50;99.90;;;;;;6137561;23;20460;-85
2021/09/28 18:17:42;;;;;;;7.23;6.53;;;15.40;99.90;;;;;;6138922;23;20479;-85
2021/09/28 18:20:13;;;;;;;7.77;7.00;;;15.30;99.90;;;;;;6138270;23;20427;-85
2021/09/28 18:22:40;;;;;;;7.23;6.07;;;15.30;99.90;;;;;;6138304;23;20396;-85
2021/09/28 18:25:09;;;;;;;6.70;6.10;;;15.20;99.90;;;;;;6138994;23;20409;-85
2021/09/28 18:27:37;;;;;;;6.87;6.27;;;15.10;99.90;;;;;;6137807;23;20790;-84
2021/09/28 18:30:05;;;;;;;6.33;5.83;;;15.00;99.90;;;;;;6137099;23;20424;-85
2021/09/28 18:32:32;;;;;;;6.63;6.03;;;15.00;99.90;;;;;;6136325;23;20801;-86
2021/09/28 18:35:00;;;;;;;7.30;6.33;;;15.00;99.90;;;;;;6133269;23;20792;-84
2021/09/28 18:37:32;;;;;;;7.70;7.00;;;14.90;99.90;;;;;;6131125;23;20425;-85
2021/09/28 18:43:03;;;;;;;8.30;7.60;;;14.80;99.90;;;;;;6129811;23;20482;-85
2021/09/28 18:45:31;;;;;;;6.83;6.27;;;14.70;99.90;;;;;;6130493;23;20439;-86
2021/09/28 18:47:58;;;;;;;6.93;6.33;;;14.70;99.90;;;;;;6129751;23;20419;-86
2021/09/28 18:50:30;;;;;;;7.40;6.70;;;14.70;99.90;;;;;;6132033;23;20443;-85
2021/09/28 18:53:01;;;;;;;7.70;7.00;;;14.70;99.90;;;;;;6136324;23;20402;-86
2021/09/28 18:55:30;;;;;;;6.80;6.20;;;14.70;99.90;;;;;;6139909;23;20454;-84
2021/09/28 18:57:59;;;;;;;7.90;6.80;;;14.70;99.90;;;;;;6135001;23;20431;-84
2021/09/28 19:00:31;;;;;;;7.80;6.13;;;14.60;99.90;;;;;;6131187;23;20925;-86
2021/09/28 19:03:02;;;;;;;6.17;5.57;;;14.60;99.90;;;;;;6130686;23;20396;-86
2021/09/28 19:05:39;;;;;;;7.50;6.57;;;14.60;99.90;;;;;;6132970;23;20439;-87
2021/09/28 19:08:10;;;;;;;8.37;6.17;;;14.50;99.90;;;;;;6133397;23;20555;-86
2021/09/28 19:10:41;;;;;;;6.83;6.13;;;14.50;99.90;;;;;;6134885;23;20971;-87
2021/09/28 19:13:08;;;;;;;6.40;5.90;;;14.50;99.90;;;;;;6133703;23;20395;-85
2021/09/28 19:15:35;;;;;;;6.83;6.13;;;14.50;99.90;;;;;;6133186;23;20989;-86
2021/09/28 19:18:02;;;;;;;8.10;6.90;;;14.50;99.90;;;;;;6133386;23;20899;-86
2021/09/28 19:20:33;;;;;;;7.47;6.87;;;14.50;99.90;;;;;;6134498;23;20416;-85
2021/09/28 19:23:00;;;;;;;6.67;5.73;;;14.50;99.90;;;;;;6136159;23;20472;-85
2021/09/28 19:25:30;;;;;;;6.90;6.17;;;14.50;99.90;;;;;;6132304;23;20715;-84
2021/09/28 19:27:58;;;;;;;6.90;6.13;;;14.50;99.90;;;;;;6131987;23;20422;-84
2021/09/28 19:30:25;;;;;;;6.30;5.70;;;14.50;99.90;;;;;;6132299;23;20412;-86
2021/09/28 19:32:52;;;;;;;6.40;5.90;;;14.50;99.90;;;;;;6131954;23;20410;-83
2021/09/28 19:35:19;;;;;;;7.10;6.50;;;14.50;99.90;;;;;;6132053;23;20462;-85
2021/09/28 19:37:48;;;;;;;7.57;6.80;;;14.50;99.90;;;;;;6131189;23;20411;-85
2021/09/28 19:40:22;;;;;;;7.33;6.47;;;14.50;99.90;;;;;;6142137;23;20419;-85
2021/09/28 19:42:55;;;;;;;7.83;7.13;;;14.50;99.90;;;;;;6140890;23;20428;-86
2021/09/28 19:45:24;;;;;;;6.00;5.50;;;14.50;99.90;;;;;;6135851;23;20487;-86
2021/09/28 19:47:52;;;;;;;8.20;6.87;;;14.50;99.90;;;;;;6133682;23;20411;-84
2021/09/28 19:50:21;;;;;;;6.83;6.20;;;14.50;99.90;;;;;;6134047;23;20415;-83
2021/09/28 19:52:49;;;;;;;6.40;5.90;;;14.50;99.90;;;;;;6133887;23;20745;-86
2021/09/28 19:55:24;;;;;;;7.10;6.50;;;14.50;99.90;;;;;;6133688;23;21143;-86
2021/09/28 19:57:58;;;;;;;7.10;6.50;;;14.50;99.90;;;;;;6136605;23;20424;-84
2021/09/28 20:00:38;;;;;;;8.27;7.47;;;14.50;99.90;;;;;;6136280;23;20436;-84
2021/09/28 20:03:17;;;;;;;7.47;6.97;;;14.50;99.90;;;;;;6137514;23;20408;-85
2021/09/28 20:35:59;;;;;;;6.90;6.30;;;14.40;99.90;;;;;;6071856;23;20759;-86
2021/09/28 20:36:54;;;;;;;7.17;6.67;;;14.30;99.90;;;;;;6135730;23;20414;-85